Time;durP1;ratioP1;P1;durP2;ratioP2;P2;SDS_P1;SDS_P2;PMS_P1;PMS_P2;Temp;Humidity;BMP_temperature;BMP_pressure;BME280_temperature;BME280_humidity;BME280_pressure;Samples;Min_cycle;Max_cycle;Signal;HPM_P1;HPM_P2
2022/08/02 00:01:31;;;;;;;8.77;4.43;;;12.70;99.90;;;;;;4967360;28;20495;-87
2022/08/02 00:03:56;;;;;;;10.10;4.75;;;12.70;99.90;;;;;;5005019;28;20078;-88
2022/08/02 00:06:22;;;;;;;9.73;4.57;;;12.70;99.90;;;;;;4984255;28;20050;-88
2022/08/02 00:08:47;;;;;;;11.23;5.13;;;12.70;99.90;;;;;;4984741;28;20266;-87
2022/08/02 00:11:13;;;;;;;8.20;5.03;;;12.70;99.90;;;;;;4985268;28;20107;-86
2022/08/02 00:13:39;;;;;;;10.82;4.80;;;12.70;99.90;;;;;;4969575;28;20525;-88
2022/08/02 00:16:04;;;;;;;10.02;5.00;;;12.70;99.90;;;;;;5011254;28;20061;-87
2022/08/02 00:18:30;;;;;;;10.02;4.93;;;12.70;99.90;;;;;;4987795;28;20095;-87
2022/08/02 00:20:55;;;;;;;10.82;4.72;;;12.70;99.90;;;;;;4986560;28;20426;-87
2022/08/02 00:23:21;;;;;;;11.50;5.00;;;12.70;99.90;;;;;;5009884;28;20048;-87
2022/08/02 00:25:46;;;;;;;13.00;6.18;;;12.70;99.90;;;;;;4975001;28;20407;-87
2022/08/02 00:28:12;;;;;;;10.10;4.97;;;12.70;99.90;;;;;;4987986;28;20149;-87
2022/08/02 00:30:38;;;;;;;11.57;5.30;;;12.70;99.90;;;;;;5007029;28;20072;-87
2022/08/02 00:33:04;;;;;;;11.77;5.55;;;12.70;99.90;;;;;;4986317;28;20510;-87
2022/08/02 00:35:31;;;;;;;9.85;5.32;;;12.70;99.90;;;;;;5010297;28;20054;-87
2022/08/02 00:37:56;;;;;;;10.10;5.43;;;12.70;99.90;;;;;;4994336;28;20050;-87
2022/08/02 00:40:22;;;;;;;9.40;5.00;;;12.70;99.90;;;;;;5010217;28;20056;-87
2022/08/02 00:43:09;;;;;;;10.32;5.60;;;12.70;99.90;;;;;;4986508;28;20057;-87
2022/08/02 00:45:37;;;;;;;9.35;5.32;;;12.70;99.90;;;;;;4999194;28;20046;-87
2022/08/02 00:48:03;;;;;;;11.80;5.88;;;12.70;99.90;;;;;;5004994;28;20107;-88
2022/08/02 00:50:29;;;;;;;10.10;6.00;;;12.70;99.90;;;;;;5030183;28;20470;-87
2022/08/02 00:52:56;;;;;;;12.75;6.10;;;12.70;99.90;;;;;;5016794;28;20153;-87
2022/08/02 00:55:21;;;;;;;12.48;6.28;;;12.60;99.90;;;;;;5009533;28;20065;-87
2022/08/02 00:57:47;;;;;;;9.68;5.68;;;12.60;99.90;;;;;;4995247;28;20041;-88
2022/08/02 01:00:14;;;;;;;10.70;5.95;;;12.60;99.90;;;;;;5007860;28;20050;-86
2022/08/02 01:02:39;;;;;;;11.10;5.82;;;12.60;99.90;;;;;;5005002;28;20068;-87
2022/08/02 01:05:05;;;;;;;11.82;6.13;;;12.60;99.90;;;;;;4993178;28;20049;-87
2022/08/02 01:07:31;;;;;;;9.68;5.65;;;12.60;99.90;;;;;;5017885;28;20046;-87
2022/08/02 01:09:57;;;;;;;13.18;6.60;;;12.60;99.90;;;;;;5009111;28;20076;-87
2022/08/02 01:12:22;;;;;;;12.68;5.97;;;12.60;99.90;;;;;;5010888;28;20081;-86
2022/08/02 01:14:54;;;;;;;11.50;5.97;;;12.60;99.90;;;;;;5029194;28;20049;-87
2022/08/02 01:17:33;;;;;;;11.32;6.20;;;12.60;99.90;;;;;;5008235;28;20049;-87
2022/08/02 01:20:22;;;;;;;10.50;6.07;;;12.50;99.90;;;;;;5006154;28;20116;-87
2022/08/02 01:23:14;;;;;;;10.68;6.10;;;12.50;99.90;;;;;;5032580;28;20060;-87
2022/08/02 01:25:58;;;;;;;13.65;6.55;;;12.50;99.90;;;;;;5014036;28;20391;-86
2022/08/02 01:28:45;;;;;;;11.13;5.97;;;12.50;99.90;;;;;;5021770;28;20049;-87
2022/08/02 01:31:28;;;;;;;11.55;6.38;;;12.50;99.90;;;;;;4998446;28;20168;-86
2022/08/02 01:34:15;;;;;;;9.98;5.78;;;12.50;99.90;;;;;;5003684;28;20087;-87
2022/08/02 01:36:45;;;;;;;13.23;6.03;;;12.50;99.90;;;;;;5019885;28;20486;-88
2022/08/02 01:39:16;;;;;;;9.40;5.97;;;12.50;99.90;;;;;;5024579;28;20053;-88
2022/08/02 01:41:43;;;;;;;10.07;5.93;;;12.50;99.90;;;;;;5011802;28;20041;-87
2022/08/02 01:44:12;;;;;;;11.48;6.05;;;12.50;99.90;;;;;;5011732;28;20324;-88
2022/08/02 01:46:40;;;;;;;10.30;5.65;;;12.50;99.90;;;;;;5011806;28;20049;-87
2022/08/02 01:49:11;;;;;;;11.82;6.28;;;12.50;99.90;;;;;;5004153;28;20048;-87
2022/08/02 01:54:28;;;;;;;12.20;6.07;;;12.50;99.90;;;;;;5012817;28;20076;-87
2022/08/02 01:56:55;;;;;;;12.32;6.32;;;12.50;99.90;;;;;;5004523;28;20033;-87
2022/08/02 01:59:22;;;;;;;11.88;6.07;;;12.50;99.90;;;;;;5012748;28;20134;-87
2022/08/02 02:01:50;;;;;;;14.40;6.35;;;12.50;99.90;;;;;;4990616;28;20045;-87
2022/08/02 02:04:18;;;;;;;13.35;6.63;;;12.40;99.90;;;;;;5005979;28;20095;-87
2022/08/02 02:06:46;;;;;;;12.32;6.28;;;12.40;99.90;;;;;;5031209;28;20049;-87
2022/08/02 02:09:14;;;;;;;13.30;6.63;;;12.40;99.90;;;;;;5030795;28;20044;-87
2022/08/02 02:11:43;;;;;;;11.52;6.50;;;12.50;99.90;;;;;;5038119;28;20048;-88
2022/08/02 02:14:10;;;;;;;11.77;6.97;;;12.40;99.90;;;;;;5007893;28;20403;-88
2022/08/02 02:16:37;;;;;;;10.90;6.60;;;12.40;99.90;;;;;;5011372;28;20051;-88
2022/08/02 02:19:03;;;;;;;11.48;6.40;;;12.40;99.90;;;;;;5010569;28;20287;-88
2022/08/02 02:21:29;;;;;;;13.52;7.10;;;12.40;99.90;;;;;;5005692;28;20072;-87
2022/08/02 02:23:55;;;;;;;11.18;7.10;;;12.30;99.90;;;;;;5003172;28;20033;-87
2022/08/02 02:26:22;;;;;;;10.95;7.07;;;12.30;99.90;;;;;;5014338;28;20132;-87
2022/08/02 02:28:49;;;;;;;12.20;7.00;;;12.30;99.90;;;;;;5005067;28;20041;-87
2022/08/02 02:31:18;;;;;;;11.63;6.88;;;12.30;99.90;;;;;;5025614;28;20050;-87
2022/08/02 02:34:01;;;;;;;11.60;7.18;;;12.30;99.90;;;;;;4999154;28;20072;-87
2022/08/02 02:36:28;;;;;;;13.48;7.50;;;12.30;99.90;;;;;;4997838;28;20046;-87
2022/08/02 02:38:58;;;;;;;13.18;7.38;;;12.30;99.90;;;;;;5004727;28;20042;-87
2022/08/02 02:41:25;;;;;;;12.93;7.40;;;12.30;99.90;;;;;;4997578;28;20052;-87
2022/08/02 02:43:54;;;;;;;11.70;6.80;;;12.30;99.90;;;;;;5005373;28;20060;-87
2022/08/02 02:46:20;;;;;;;12.57;7.07;;;12.30;99.90;;;;;;5031139;28;20053;-87
2022/08/02 02:48:46;;;;;;;15.13;7.47;;;12.30;99.90;;;;;;5007623;28;20046;-87
2022/08/02 02:51:13;;;;;;;12.77;7.00;;;12.30;99.90;;;;;;5008943;28;20068;-87
2022/08/02 02:53:41;;;;;;;14.27;7.18;;;12.20;99.90;;;;;;4992111;28;20053;-87
2022/08/02 02:56:07;;;;;;;10.63;7.10;;;12.20;99.90;;;;;;4987992;28;20049;-87
2022/08/02 02:58:33;;;;;;;11.23;7.50;;;12.20;99.90;;;;;;4991020;28;20406;-87
2022/08/02 03:03:44;;;;;;;11.75;7.45;;;12.30;99.90;;;;;;5018630;28;20407;-87
2022/08/02 03:06:10;;;;;;;10.68;7.20;;;12.30;99.90;;;;;;5007215;28;20073;-87
2022/08/02 03:08:35;;;;;;;13.20;7.00;;;12.20;99.90;;;;;;5008918;28;20100;-87
2022/08/02 03:11:01;;;;;;;11.50;7.22;;;12.20;99.90;;;;;;5039304;28;20044;-87
2022/08/02 03:13:27;;;;;;;12.00;6.90;;;12.30;99.90;;;;;;5011780;28;20113;-87
2022/08/02 03:15:53;;;;;;;14.30;7.28;;;12.20;99.90;;;;;;5024945;28;20033;-88
2022/08/02 03:18:36;;;;;;;12.38;7.07;;;12.20;99.90;;;;;;5005067;28;20135;-87
2022/08/02 03:21:05;;;;;;;13.93;7.65;;;12.20;99.90;;;;;;5012725;28;20049;-88
2022/08/02 03:23:31;;;;;;;14.93;7.70;;;12.20;99.90;;;;;;5032313;28;20049;-87
2022/08/02 03:25:57;;;;;;;13.23;7.20;;;12.20;99.90;;;;;;5009366;28;20037;-87
2022/08/02 03:28:23;;;;;;;12.98;8.50;;;12.20;99.90;;;;;;5003082;28;20084;-87
2022/08/02 03:30:49;;;;;;;15.52;8.10;;;12.20;99.90;;;;;;5005167;28;20069;-87
2022/08/02 03:33:14;;;;;;;15.52;8.13;;;12.20;99.90;;;;;;4988824;28;20041;-88
2022/08/02 03:35:41;;;;;;;14.65;8.77;;;12.30;99.90;;;;;;5001298;28;20046;-87
2022/08/02 03:38:09;;;;;;;14.50;8.85;;;12.30;99.90;;;;;;5003789;28;20092;-88
2022/08/02 03:40:35;;;;;;;14.50;8.13;;;12.40;99.90;;;;;;5007424;28;20076;-85
2022/08/02 03:43:01;;;;;;;14.07;8.18;;;12.40;99.90;;;;;;5029751;28;20037;-85
2022/08/02 03:45:28;;;;;;;14.57;8.30;;;12.40;99.90;;;;;;5008498;28;20041;-85
2022/08/02 03:47:55;;;;;;;12.90;8.10;;;12.40;99.90;;;;;;5005843;28;20049;-85
2022/08/02 03:50:21;;;;;;;14.48;8.13;;;12.40;99.90;;;;;;5009346;28;20140;-85
2022/08/02 03:52:47;;;;;;;16.67;8.70;;;12.50;99.90;;;;;;5032138;28;20042;-86
2022/08/02 03:55:13;;;;;;;13.20;8.65;;;12.50;99.90;;;;;;5037301;28;20166;-86
2022/08/02 03:57:40;;;;;;;12.55;8.90;;;12.50;99.90;;;;;;5024740;28;20046;-85
2022/08/02 04:00:08;;;;;;;14.35;8.38;;;12.50;99.90;;;;;;4990836;28;20051;-87
2022/08/02 04:02:35;;;;;;;17.02;8.70;;;12.50;99.90;;;;;;4997950;28;20046;-87
2022/08/02 04:05:01;;;;;;;16.38;8.55;;;12.60;99.90;;;;;;5013236;28;20454;-88
2022/08/02 04:07:26;;;;;;;15.32;8.85;;;12.50;99.90;;;;;;5014493;28;20049;-87
2022/08/02 04:09:52;;;;;;;19.52;9.13;;;12.50;99.90;;;;;;5006891;28;20029;-92
2022/08/02 04:12:18;;;;;;;13.32;8.45;;;12.60;99.90;;;;;;4995367;28;20045;-92
2022/08/02 04:14:44;;;;;;;15.00;8.48;;;12.60;99.90;;;;;;4995912;28;20038;-90
2022/08/02 04:17:12;;;;;;;15.57;8.52;;;12.70;99.90;;;;;;4996783;28;20080;-91
2022/08/02 04:19:59;;;;;;;15.90;8.65;;;12.70;99.90;;;;;;4992426;28;20042;-91
2022/08/02 04:22:30;;;;;;;13.95;9.00;;;12.70;99.90;;;;;;5003739;28;20045;-91
2022/08/02 04:24:58;;;;;;;14.40;8.90;;;12.80;99.90;;;;;;5004680;28;20063;-90
2022/08/02 04:27:25;;;;;;;15.55;8.90;;;12.80;99.90;;;;;;5005833;28;20362;-90
2022/08/02 04:29:52;;;;;;;15.20;8.68;;;12.90;99.90;;;;;;5009625;28;20088;-89
2022/08/02 04:32:19;;;;;;;14.80;8.93;;;12.90;99.90;;;;;;4996354;28;20081;-89
2022/08/02 04:34:45;;;;;;;14.38;8.23;;;13.10;99.90;;;;;;5001019;28;20122;-90
2022/08/02 04:37:12;;;;;;;13.05;8.43;;;13.00;99.90;;;;;;5004889;28;20041;-89
2022/08/02 04:39:40;;;;;;;14.40;8.55;;;13.10;99.90;;;;;;5004881;28;20405;-89
2022/08/02 04:42:06;;;;;;;13.00;8.60;;;13.10;99.90;;;;;;5008299;28;20041;-90
2022/08/02 04:44:32;;;;;;;14.93;8.18;;;13.10;99.90;;;;;;5004689;28;20091;-90
2022/08/02 04:47:01;;;;;;;14.38;8.65;;;13.20;99.90;;;;;;4990623;28;20053;-90
2022/08/02 04:49:27;;;;;;;11.38;8.18;;;13.20;99.90;;;;;;4991815;28;20062;-90
2022/08/02 04:51:53;;;;;;;13.63;8.30;;;13.30;99.90;;;;;;5001414;28;20041;-90
2022/08/02 04:54:19;;;;;;;13.50;8.00;;;13.30;99.90;;;;;;4985293;28;20049;-90
2022/08/02 04:56:45;;;;;;;15.02;8.35;;;13.40;99.90;;;;;;4968334;28;20046;-91
2022/08/02 04:59:11;;;;;;;15.98;8.82;;;13.40;99.90;;;;;;4991712;28;20036;-92
2022/08/02 05:01:38;;;;;;;12.90;9.00;;;13.40;99.90;;;;;;4989647;28;20064;-90
2022/08/02 05:04:04;;;;;;;12.75;8.52;;;13.50;99.90;;;;;;4985035;28;20053;-90
2022/08/02 05:06:30;;;;;;;14.50;8.77;;;13.60;99.90;;;;;;5004033;28;20040;-89
2022/08/02 05:08:56;;;;;;;15.95;9.10;;;13.60;99.90;;;;;;4988147;28;20048;-90
2022/08/02 05:11:23;;;;;;;13.07;8.70;;;13.60;99.90;;;;;;4970208;28;20046;-90
2022/08/02 05:13:49;;;;;;;14.93;9.32;;;13.60;99.90;;;;;;4972911;28;20057;-90
2022/08/02 05:16:14;;;;;;;17.98;9.50;;;13.70;99.90;;;;;;4990279;28;20037;-90
2022/08/02 05:18:40;;;;;;;13.98;8.90;;;13.70;99.90;;;;;;4989214;28;20038;-91
2022/08/02 05:21:06;;;;;;;14.48;9.30;;;13.80;99.90;;;;;;4971021;28;20058;-92
2022/08/02 05:23:31;;;;;;;14.27;8.70;;;13.90;99.90;;;;;;4978701;28;20137;-91
2022/08/02 05:25:57;;;;;;;14.73;9.10;;;13.90;99.90;;;;;;4985258;28;20033;-90
2022/08/02 05:28:23;;;;;;;13.40;9.40;;;14.00;99.90;;;;;;5011760;28;20041;-91
2022/08/02 05:30:50;;;;;;;14.05;9.25;;;14.00;99.90;;;;;;4999254;28;20034;-91
2022/08/02 05:33:16;;;;;;;14.23;9.00;;;14.10;99.90;;;;;;4967850;28;20309;-92
2022/08/02 05:35:41;;;;;;;13.60;8.93;;;14.10;99.90;;;;;;4958829;28;20642;-91
2022/08/02 05:38:07;;;;;;;12.93;8.85;;;14.20;99.90;;;;;;4989631;28;20234;-91
2022/08/02 05:40:33;;;;;;;13.18;8.30;;;14.30;99.90;;;;;;4982505;28;20038;-90
2022/08/02 05:42:58;;;;;;;14.98;8.88;;;14.40;99.90;;;;;;4968826;28;20065;-92
2022/08/02 05:45:24;;;;;;;13.27;8.68;;;14.40;99.90;;;;;;4991946;28;20070;-92
2022/08/02 05:47:50;;;;;;;14.43;9.18;;;14.50;99.90;;;;;;4987581;28;20046;-92
2022/08/02 05:50:16;;;;;;;15.50;9.00;;;14.60;99.90;;;;;;4984054;28;20055;-91
2022/08/02 05:53:13;;;;;;;11.57;8.80;;;14.60;99.90;;;;;;4995460;28;20052;-91
2022/08/02 05:55:56;;;;;;;12.73;8.52;;;14.80;99.90;;;;;;4970103;28;20660;-91
2022/08/02 05:58:40;;;;;;;14.38;8.85;;;14.90;99.90;;;;;;4971836;28;20046;-92
2022/08/02 06:01:10;;;;;;;16.40;8.52;;;15.00;99.90;;;;;;4986687;28;20042;-92
2022/08/02 06:03:49;;;;;;;13.27;8.18;;;15.10;99.90;;;;;;4988557;28;20045;-92
2022/08/02 06:06:22;;;;;;;12.23;8.30;;;15.20;99.90;;;;;;5010762;28;20433;-92
2022/08/02 06:08:53;;;;;;;11.85;8.40;;;15.30;99.90;;;;;;4991283;28;20438;-92
2022/08/02 06:11:23;;;;;;;12.50;8.05;;;15.40;99.90;;;;;;4992264;28;20424;-91
2022/08/02 06:13:50;;;;;;;11.07;8.35;;;15.50;99.90;;;;;;4979103;28;20494;-92
2022/08/02 06:16:17;;;;;;;11.48;7.20;;;15.70;99.90;;;;;;4964369;28;20053;-91
2022/08/02 06:18:44;;;;;;;14.05;7.72;;;15.70;99.90;;;;;;4968175;28;20042;-93
2022/08/02 06:21:13;;;;;;;12.15;7.22;;;15.90;99.90;;;;;;4987273;28;20092;-93
2022/08/02 06:23:41;;;;;;;12.85;7.15;;;16.00;99.90;;;;;;4981099;28;20050;-92
2022/08/02 06:26:10;;;;;;;11.45;6.50;;;16.10;99.90;;;;;;4966272;28;20034;-91
2022/08/02 06:28:39;;;;;;;9.63;6.18;;;16.20;99.90;;;;;;4971207;28;21159;-92
2022/08/02 06:31:06;;;;;;;10.68;6.10;;;16.30;99.90;;;;;;4969001;28;20160;-91
2022/08/02 06:33:31;;;;;;;10.93;5.38;;;16.40;99.90;;;;;;4989817;28;20407;-92
2022/08/02 06:36:26;;;;;;;10.93;5.65;;;16.60;99.90;;;;;;4980238;28;20030;-93
2022/08/02 06:39:07;;;;;;;11.48;6.35;;;16.70;99.90;;;;;;4988107;28;20052;-91
2022/08/02 06:41:43;;;;;;;12.35;6.07;;;16.80;99.90;;;;;;4975931;28;20390;-89
2022/08/02 06:44:09;;;;;;;10.48;5.93;;;16.90;99.90;;;;;;4972077;28;20054;-90
2022/08/02 06:46:35;;;;;;;10.43;5.75;;;17.00;99.90;;;;;;4988131;28;20038;-90
2022/08/02 06:49:01;;;;;;;9.90;5.82;;;17.10;99.90;;;;;;4987996;28;20045;-91
2022/08/02 06:51:27;;;;;;;11.07;5.60;;;17.20;99.90;;;;;;5004019;28;20052;-90
2022/08/02 06:53:53;;;;;;;10.55;5.45;;;17.30;99.90;;;;;;5001401;28;21454;-94
2022/08/02 06:56:18;;;;;;;10.52;6.22;;;17.30;99.90;;;;;;5030519;28;20402;-93
2022/08/02 06:58:44;;;;;;;9.40;5.13;;;17.50;99.90;;;;;;5013664;28;20068;-94
2022/08/02 07:01:11;;;;;;;11.38;5.50;;;17.40;99.90;;;;;;5003358;28;20569;-95
2022/08/02 07:03:38;;;;;;;9.63;5.53;;;17.50;99.90;;;;;;4997818;28;20045;-95
2022/08/02 07:06:07;;;;;;;10.15;5.60;;;17.60;99.90;;;;;;5010919;28;20941;-93
2022/08/02 07:08:35;;;;;;;12.02;5.20;;;17.60;99.90;;;;;;5015371;28;20102;-93
2022/08/02 07:11:01;;;;;;;11.68;5.13;;;17.70;99.90;;;;;;5025329;28;20124;-93
2022/08/02 07:13:28;;;;;;;12.00;5.05;;;17.90;99.90;;;;;;5013884;28;20053;-93
2022/08/02 07:15:54;;;;;;;11.25;4.75;;;18.00;99.90;;;;;;5009314;28;20064;-92
2022/08/02 07:18:20;;;;;;;11.63;5.30;;;18.10;99.90;;;;;;5011512;28;20046;-92
2022/08/02 07:20:46;;;;;;;9.88;4.75;;;18.20;99.90;;;;;;5010971;28;20037;-92
2022/08/02 07:23:11;;;;;;;9.68;4.70;;;18.30;99.90;;;;;;5039613;28;20049;-94
2022/08/02 07:25:37;;;;;;;10.45;4.30;;;18.40;99.90;;;;;;5012570;28;20513;-94
2022/08/02 07:28:04;;;;;;;10.77;4.55;;;18.40;99.90;;;;;;5007772;28;20111;-94
2022/08/02 07:30:31;;;;;;;8.88;4.03;;;18.40;99.90;;;;;;5045727;28;20046;-94
2022/08/02 07:32:57;;;;;;;10.80;4.47;;;18.40;99.90;;;;;;5016846;28;20045;-95
2022/08/02 07:35:23;;;;;;;9.68;3.72;;;18.30;99.90;;;;;;5022836;28;20048;-94
2022/08/02 07:37:49;;;;;;;8.55;3.80;;;18.30;99.90;;;;;;5007070;28;20033;-93
2022/08/02 07:40:15;;;;;;;11.02;3.70;;;18.30;99.90;;;;;;5004471;28;20438;-93
2022/08/02 07:42:42;;;;;;;8.10;3.45;;;18.40;99.90;;;;;;5027231;28;20144;-91
2022/08/02 07:45:08;;;;;;;8.18;3.25;;;18.50;99.90;;;;;;5020591;28;20038;-92
2022/08/02 07:47:38;;;;;;;8.15;3.63;;;18.60;99.90;;;;;;5029537;28;20511;-91
2022/08/02 07:50:04;;;;;;;8.60;3.55;;;18.70;99.90;;;;;;4988180;28;20152;-92
2022/08/02 07:52:30;;;;;;;8.95;3.50;;;18.80;99.90;;;;;;5003279;28;20095;-92
2022/08/02 07:54:55;;;;;;;8.95;3.47;;;19.00;99.90;;;;;;4997274;28;20058;-91
2022/08/02 07:57:21;;;;;;;8.75;3.28;;;19.10;99.90;;;;;;5006772;28;20045;-91
2022/08/02 07:59:47;;;;;;;8.07;3.10;;;19.10;99.90;;;;;;5008218;28;20076;-91
2022/08/02 08:02:13;;;;;;;8.98;3.58;;;19.30;99.90;;;;;;5022616;28;20072;-91
2022/08/02 08:04:39;;;;;;;11.05;3.22;;;19.40;99.90;;;;;;5008004;28;20106;-89
2022/08/02 08:07:08;;;;;;;7.90;3.00;;;19.50;99.90;;;;;;5011864;28;20056;-90
2022/08/02 08:09:38;;;;;;;7.90;3.15;;;19.60;99.90;;;;;;5011346;28;20045;-90
2022/08/02 08:12:05;;;;;;;6.93;3.10;;;19.70;99.90;;;;;;5007770;28;20120;-89
2022/08/02 08:14:31;;;;;;;7.05;3.47;;;19.80;99.90;;;;;;5002153;28;20041;-90
2022/08/02 08:16:56;;;;;;;6.95;3.10;;;19.90;99.90;;;;;;5003640;28;20046;-90
2022/08/02 08:19:22;;;;;;;7.78;3.05;;;20.00;99.90;;;;;;5001687;28;20529;-91
2022/08/02 08:21:47;;;;;;;8.90;3.17;;;20.10;99.90;;;;;;5004649;28;20106;-90
2022/08/02 08:24:13;;;;;;;8.60;2.90;;;20.30;99.90;;;;;;5006123;28;20489;-92
2022/08/02 08:26:39;;;;;;;7.25;2.80;;;20.30;99.90;;;;;;4992106;28;20456;-93
2022/08/02 08:29:06;;;;;;;6.80;2.55;;;20.40;99.90;;;;;;5008742;28;20033;-93
2022/08/02 08:31:32;;;;;;;7.88;2.55;;;20.50;99.90;;;;;;5009911;28;20044;-92
2022/08/02 08:33:57;;;;;;;7.45;2.75;;;20.60;99.90;;;;;;5005418;28;20042;-91
2022/08/02 08:36:23;;;;;;;6.68;2.40;;;20.70;99.90;;;;;;5010220;28;20544;-93
2022/08/02 08:38:49;;;;;;;7.97;2.45;;;20.80;99.90;;;;;;5002528;28;20046;-93
2022/08/02 08:41:18;;;;;;;6.93;2.25;;;20.90;99.90;;;;;;5006168;28;20482;-91
2022/08/02 08:43:45;;;;;;;7.32;2.50;;;20.90;99.90;;;;;;5013603;28;20143;-91
2022/08/02 08:46:35;;;;;;;7.22;2.53;;;21.00;99.90;;;;;;5006653;28;20077;-92
2022/08/02 08:49:24;;;;;;;5.75;2.10;;;21.00;99.90;;;;;;5029854;28;20044;-94
2022/08/02 08:51:54;;;;;;;5.88;2.08;;;21.10;99.90;;;;;;5007012;28;20191;-92
2022/08/02 08:54:26;;;;;;;7.93;2.47;;;21.10;99.90;;;;;;5034095;28;20049;-94
2022/08/02 08:56:54;;;;;;;7.95;2.28;;;21.20;99.90;;;;;;5014242;28;20037;-94
2022/08/02 08:59:19;;;;;;;6.70;2.10;;;21.30;99.90;;;;;;5040857;28;20049;-94
2022/08/02 09:01:46;;;;;;;7.78;2.47;;;21.30;99.90;;;;;;5013731;28;20350;-95
2022/08/02 09:04:11;;;;;;;6.38;2.03;;;21.40;99.90;;;;;;5012835;28;20044;-94
2022/08/02 09:06:40;;;;;;;6.78;2.42;;;21.40;99.90;;;;;;4995994;28;20430;-94
2022/08/02 09:09:07;;;;;;;5.95;2.08;;;21.40;99.90;;;;;;5042605;28;20087;-92
2022/08/02 09:11:32;;;;;;;8.60;2.13;;;21.50;99.90;;;;;;5009988;28;20150;-94
2022/08/02 09:14:00;;;;;;;5.32;2.30;;;21.60;99.90;;;;;;5001348;28;20041;-96
2022/08/02 09:16:33;;;;;;;6.60;2.22;;;21.70;99.90;;;;;;5018706;28;20053;-95
2022/08/02 09:19:00;;;;;;;6.03;2.10;;;21.70;99.90;;;;;;5031993;28;20084;-91
2022/08/02 09:21:36;;;;;;;6.80;2.20;;;21.80;99.90;;;;;;5011480;28;20102;-94
2022/08/02 09:24:13;;;;;;;7.55;2.20;;;22.10;99.90;;;;;;5018039;28;20595;-92
2022/08/02 09:26:41;;;;;;;7.97;2.55;;;22.10;99.90;;;;;;5014339;28;20061;-94
2022/08/02 09:29:07;;;;;;;5.68;2.08;;;22.20;99.90;;;;;;5016543;28;20079;-94
2022/08/02 09:31:34;;;;;;;6.07;2.80;;;22.30;99.90;;;;;;4998486;28;20042;-93
2022/08/02 09:34:00;;;;;;;6.78;2.38;;;22.40;99.90;;;;;;5012508;28;20044;-93
2022/08/02 09:36:35;;;;;;;6.32;2.20;;;22.50;99.90;;;;;;5004735;28;20037;-91
2022/08/02 09:39:05;;;;;;;7.90;2.88;;;22.60;99.90;;;;;;5018335;28;20049;-90
2022/08/02 09:41:33;;;;;;;7.28;2.60;;;22.70;99.90;;;;;;5007749;28;20069;-91
2022/08/02 09:44:00;;;;;;;6.85;2.90;;;22.80;99.90;;;;;;5024357;28;20358;-92
2022/08/02 09:46:32;;;;;;;7.20;3.10;;;22.90;99.90;;;;;;4997414;28;20414;-93
2022/08/02 09:49:01;;;;;;;7.30;3.35;;;23.00;99.90;;;;;;5040015;28;20045;-91
2022/08/02 09:51:30;;;;;;;7.57;3.22;;;23.00;99.90;;;;;;5006441;28;20044;-89
2022/08/02 09:53:57;;;;;;;6.57;3.13;;;23.10;99.90;;;;;;5030603;28;20041;-88
2022/08/02 09:56:25;;;;;;;9.23;3.22;;;23.10;99.90;;;;;;4990647;28;20120;-92
2022/08/02 09:58:53;;;;;;;8.57;3.22;;;23.20;99.90;;;;;;5037588;28;20051;-87
2022/08/02 10:01:20;;;;;;;7.93;3.30;;;23.20;99.90;;;;;;5038767;28;20049;-91
2022/08/02 10:03:54;;;;;;;8.00;3.50;;;23.30;99.90;;;;;;5027135;28;20045;-90
2022/08/02 10:06:20;;;;;;;7.95;3.47;;;23.30;99.90;;;;;;5029098;28;20063;-91
2022/08/02 10:08:46;;;;;;;7.85;3.80;;;23.30;99.90;;;;;;5015346;28;20060;-92
2022/08/02 10:11:12;;;;;;;7.50;3.50;;;23.40;99.90;;;;;;4993905;28;20082;-91
2022/08/02 10:13:38;;;;;;;6.97;3.38;;;23.40;99.90;;;;;;4990731;28;20085;-91
2022/08/02 10:16:05;;;;;;;7.18;3.40;;;23.40;99.90;;;;;;5014276;28;20073;-92
2022/08/02 10:18:31;;;;;;;7.57;3.60;;;23.50;99.90;;;;;;5032500;28;20045;-90
2022/08/02 10:21:00;;;;;;;7.10;3.30;;;23.50;99.90;;;;;;5030301;28;20047;-91
2022/08/02 10:23:30;;;;;;;8.98;3.70;;;23.60;99.90;;;;;;5014866;28;20048;-92
2022/08/02 10:25:56;;;;;;;7.85;3.63;;;23.60;99.90;;;;;;5009111;28;20041;-92
2022/08/02 10:28:35;;;;;;;7.07;3.42;;;23.70;99.90;;;;;;5034239;28;20061;-94
2022/08/02 10:31:04;;;;;;;7.88;4.22;;;23.70;99.90;;;;;;5002950;28;20045;-91
2022/08/02 10:33:33;;;;;;;8.40;3.88;;;23.80;99.90;;;;;;5010034;28;20045;-92
2022/08/02 10:36:01;;;;;;;10.00;4.18;;;23.90;99.90;;;;;;5005101;28;20041;-90
2022/08/02 10:38:27;;;;;;;8.30;3.88;;;24.00;99.90;;;;;;5036371;28;20055;-88
2022/08/02 10:40:54;;;;;;;8.65;4.00;;;24.00;99.90;;;;;;5020658;28;20034;-92
2022/08/02 10:43:41;;;;;;;8.45;4.00;;;24.20;99.90;;;;;;5012906;28;20079;-91
2022/08/02 10:46:26;;;;;;;7.78;3.50;;;24.10;99.90;;;;;;5004256;28;20060;-89
2022/08/02 10:49:11;;;;;;;7.63;3.45;;;24.10;99.90;;;;;;5026399;28;20052;-89
2022/08/02 10:52:01;;;;;;;7.30;3.70;;;24.10;99.90;;;;;;4999764;28;20034;-92
2022/08/02 10:54:30;;;;;;;7.20;3.60;;;24.20;99.90;;;;;;4992507;28;20056;-89
2022/08/02 10:56:57;;;;;;;9.43;4.20;;;24.20;99.90;;;;;;5001955;28;20045;-91
2022/08/02 10:59:32;;;;;;;8.75;4.20;;;24.30;99.90;;;;;;5013510;28;20075;-89
2022/08/02 11:02:03;;;;;;;8.82;4.00;;;24.30;99.90;;;;;;5028072;28;20545;-92
2022/08/02 11:04:31;;;;;;;8.23;3.97;;;24.40;99.90;;;;;;5006406;28;20037;-93
2022/08/02 11:07:18;;;;;;;8.82;3.67;;;24.50;99.90;;;;;;5005060;28;20034;-89
2022/08/02 11:09:45;;;;;;;6.95;3.30;;;24.60;99.90;;;;;;5007989;28;20064;-90
2022/08/02 11:12:13;;;;;;;8.02;3.85;;;24.70;99.90;;;;;;5008216;28;20053;-92
2022/08/02 11:14:42;;;;;;;7.90;3.45;;;24.70;99.90;;;;;;5015840;28;20045;-91
2022/08/02 11:17:18;;;;;;;7.28;3.72;;;24.80;99.90;;;;;;4988816;28;20057;-90
2022/08/02 11:20:11;;;;;;;8.25;3.88;;;24.80;99.90;;;;;;5009641;28;20061;-90
2022/08/02 11:22:40;;;;;;;6.65;3.70;;;24.90;99.90;;;;;;5023300;28;20135;-93
2022/08/02 11:25:21;;;;;;;8.02;3.80;;;25.00;99.90;;;;;;5024873;28;20045;-92
2022/08/02 11:27:47;;;;;;;7.35;3.28;;;25.10;99.90;;;;;;5028324;28;20053;-91
2022/08/02 11:30:14;;;;;;;8.18;3.17;;;25.20;99.90;;;;;;5032290;28;20033;-91
2022/08/02 11:32:40;;;;;;;8.48;3.30;;;25.20;99.90;;;;;;5026423;28;20042;-88
2022/08/02 11:35:06;;;;;;;7.30;3.03;;;25.20;99.90;;;;;;4995412;28;20042;-89
2022/08/02 11:37:35;;;;;;;6.72;3.40;;;25.20;99.90;;;;;;5009391;28;20049;-92
2022/08/02 11:40:01;;;;;;;8.07;3.17;;;25.20;99.90;;;;;;5005343;28;20042;-92
2022/08/02 11:42:35;;;;;;;6.93;3.60;;;25.40;99.90;;;;;;5009970;28;20761;-89
2022/08/02 11:45:01;;;;;;;6.90;3.13;;;25.30;99.90;;;;;;5011520;28;20060;-92
2022/08/02 11:47:27;;;;;;;6.85;2.97;;;25.30;99.90;;;;;;5002878;28;20053;-91
2022/08/02 11:50:11;;;;;;;7.05;2.70;;;25.30;99.90;;;;;;5006402;28;20057;-91
2022/08/02 11:52:37;;;;;;;5.35;2.22;;;25.30;99.90;;;;;;5005564;28;20445;-90
2022/08/02 11:55:06;;;;;;;6.10;2.20;;;25.40;99.90;;;;;;5002932;28;20034;-93
2022/08/02 11:57:33;;;;;;;6.80;2.35;;;25.40;99.90;;;;;;5026669;28;20045;-91
2022/08/02 11:59:59;;;;;;;6.32;2.60;;;25.60;99.90;;;;;;5030685;28;20051;-89
2022/08/02 12:02:27;;;;;;;6.03;2.60;;;25.60;99.90;;;;;;4990211;28;20136;-91
2022/08/02 12:04:59;;;;;;;5.72;2.55;;;25.80;99.90;;;;;;5010447;28;20041;-91
2022/08/02 12:07:34;;;;;;;5.82;2.55;;;25.80;99.90;;;;;;5006248;28;20057;-93
2022/08/02 12:10:04;;;;;;;5.93;2.50;;;25.90;99.90;;;;;;5008193;28;20046;-91
2022/08/02 12:12:30;;;;;;;5.55;2.72;;;25.90;99.90;;;;;;5028651;28;20049;-91
2022/08/02 12:14:55;;;;;;;5.22;2.40;;;25.90;99.90;;;;;;5002528;28;20116;-91
2022/08/02 12:20:10;;;;;;;6.13;2.80;;;26.00;99.90;;;;;;5033381;28;20077;-91
2022/08/02 12:22:37;;;;;;;5.97;2.67;;;25.90;99.90;;;;;;5031569;28;20197;-92
2022/08/02 12:25:23;;;;;;;5.97;3.10;;;25.90;99.90;;;;;;5029487;28;20120;-91
2022/08/02 12:27:48;;;;;;;6.60;2.97;;;25.90;99.90;;;;;;4995450;28;20453;-89
2022/08/02 12:30:16;;;;;;;6.10;2.63;;;25.90;99.90;;;;;;5015114;28;20095;-91
2022/08/02 12:32:43;;;;;;;5.78;2.90;;;25.90;99.90;;;;;;4994076;28;20045;-91
2022/08/02 12:35:13;;;;;;;7.60;3.05;;;25.90;99.90;;;;;;5006754;28;20057;-91
2022/08/02 12:37:44;;;;;;;8.45;4.60;;;25.90;99.90;;;;;;5012032;28;20059;-90
2022/08/02 12:40:26;;;;;;;6.57;3.72;;;26.00;99.90;;;;;;5029957;28;20434;-92
2022/08/02 12:43:03;;;;;;;6.10;3.45;;;26.10;99.90;;;;;;5009606;28;20085;-91
2022/08/02 12:45:32;;;;;;;8.90;3.20;;;26.10;99.90;;;;;;5009207;28;20038;-91
2022/08/02 12:47:59;;;;;;;5.57;2.75;;;26.10;99.90;;;;;;5046193;28;20048;-92
2022/08/02 12:50:31;;;;;;;6.72;3.20;;;26.10;99.90;;;;;;5009401;28;20107;-88
2022/08/02 12:53:15;;;;;;;6.65;3.05;;;26.00;99.90;;;;;;4987706;28;20045;-89
2022/08/02 12:55:57;;;;;;;6.55;3.17;;;26.00;99.90;;;;;;5010775;28;20072;-87
2022/08/02 12:58:23;;;;;;;7.47;2.80;;;25.90;99.90;;;;;;5040183;28;20447;-90